sensor_id;sensor_type;location;lat;lon;timestamp;pressure;altitude;pressure_sealevel;temperature;humidity
70589;BME280;58152;49.202;18.744;2023-03-15T00:01:31;96111.81;;;8.70;67.61
70589;BME280;58152;49.202;18.744;2023-03-15T00:03:56;96118.91;;;8.68;67.50
70589;BME280;58152;49.202;18.744;2023-03-15T00:06:22;96126.75;;;8.68;67.40
70589;BME280;58152;49.202;18.744;2023-03-15T00:08:47;96121.69;;;8.65;67.23
70589;BME280;58152;49.202;18.744;2023-03-15T00:11:16;96133.75;;;8.68;66.70
70589;BME280;58152;49.202;18.744;2023-03-15T00:13:42;96140.19;;;8.62;66.85
70589;BME280;58152;49.202;18.744;2023-03-15T00:16:08;96138.56;;;8.59;67.12
70589;BME280;58152;49.202;18.744;2023-03-15T00:18:33;96143.91;;;8.58;67.00
70589;BME280;58152;49.202;18.744;2023-03-15T00:21:00;96146.59;;;8.56;67.44
70589;BME280;58152;49.202;18.744;2023-03-15T00:23:25;96150.13;;;8.55;67.67
70589;BME280;58152;49.202;18.744;2023-03-15T00:25:51;96159.00;;;8.53;67.72
70589;BME280;58152;49.202;18.744;2023-03-15T00:28:18;96167.50;;;8.56;67.98
70589;BME280;58152;49.202;18.744;2023-03-15T00:30:43;96166.00;;;8.52;68.39
70589;BME280;58152;49.202;18.744;2023-03-15T00:33:13;96167.84;;;8.50;68.91
70589;BME280;58152;49.202;18.744;2023-03-15T00:35:43;96181.06;;;8.47;69.11
70589;BME280;58152;49.202;18.744;2023-03-15T00:38:09;96195.28;;;8.43;69.46
70589;BME280;58152;49.202;18.744;2023-03-15T00:40:35;96212.78;;;8.41;68.66
70589;BME280;58152;49.202;18.744;2023-03-15T00:43:02;96217.16;;;8.25;66.69
70589;BME280;58152;49.202;18.744;2023-03-15T00:45:27;96242.06;;;8.14;65.28
70589;BME280;58152;49.202;18.744;2023-03-15T00:47:53;96247.94;;;8.02;64.27
70589;BME280;58152;49.202;18.744;2023-03-15T00:50:20;96259.63;;;7.95;63.73
70589;BME280;58152;49.202;18.744;2023-03-15T00:52:47;96280.06;;;7.87;63.58
70589;BME280;58152;49.202;18.744;2023-03-15T00:55:15;96291.84;;;7.78;63.97
70589;BME280;58152;49.202;18.744;2023-03-15T00:57:42;96305.06;;;7.75;63.32
70589;BME280;58152;49.202;18.744;2023-03-15T01:00:10;96311.34;;;7.71;63.92
70589;BME280;58152;49.202;18.744;2023-03-15T01:02:38;96322.66;;;7.72;64.00
70589;BME280;58152;49.202;18.744;2023-03-15T01:05:05;96315.19;;;7.64;63.98
70589;BME280;58152;49.202;18.744;2023-03-15T01:07:31;96331.53;;;7.68;63.56
70589;BME280;58152;49.202;18.744;2023-03-15T01:09:58;96336.84;;;7.66;63.42
70589;BME280;58152;49.202;18.744;2023-03-15T01:12:24;96324.25;;;7.57;62.94
70589;BME280;58152;49.202;18.744;2023-03-15T01:14:49;96348.66;;;7.56;63.34
70589;BME280;58152;49.202;18.744;2023-03-15T01:17:14;96349.88;;;7.49;62.46
70589;BME280;58152;49.202;18.744;2023-03-15T01:19:40;96352.81;;;7.43;62.01
70589;BME280;58152;49.202;18.744;2023-03-15T01:22:05;96358.69;;;7.29;61.42
70589;BME280;58152;49.202;18.744;2023-03-15T01:24:31;96358.00;;;7.25;61.33
70589;BME280;58152;49.202;18.744;2023-03-15T01:26:56;96363.66;;;7.16;61.20
70589;BME280;58152;49.202;18.744;2023-03-15T01:29:22;96371.47;;;7.16;61.62
70589;BME280;58152;49.202;18.744;2023-03-15T01:31:47;96383.81;;;7.12;61.14
70589;BME280;58152;49.202;18.744;2023-03-15T01:34:12;96398.69;;;7.10;60.76
70589;BME280;58152;49.202;18.744;2023-03-15T01:36:38;96385.16;;;7.02;61.37
70589;BME280;58152;49.202;18.744;2023-03-15T01:39:03;96404.97;;;7.06;60.72
70589;BME280;58152;49.202;18.744;2023-03-15T01:41:29;96397.34;;;7.02;60.47
70589;BME280;58152;49.202;18.744;2023-03-15T01:43:54;96402.69;;;6.99;60.39
70589;BME280;58152;49.202;18.744;2023-03-15T01:46:31;96402.78;;;6.97;60.11
70589;BME280;58152;49.202;18.744;2023-03-15T01:49:07;96401.16;;;6.95;60.12
70589;BME280;58152;49.202;18.744;2023-03-15T01:51:59;96397.16;;;6.87;59.62
70589;BME280;58152;49.202;18.744;2023-03-15T01:54:30;96410.22;;;6.86;60.38
70589;BME280;58152;49.202;18.744;2023-03-15T01:57:19;96400.00;;;6.81;58.71
70589;BME280;58152;49.202;18.744;2023-03-15T01:59:58;96411.38;;;6.80;59.40
70589;BME280;58152;49.202;18.744;2023-03-15T02:02:26;96421.06;;;6.77;59.69
70589;BME280;58152;49.202;18.744;2023-03-15T02:04:59;96414.38;;;6.71;59.40
70589;BME280;58152;49.202;18.744;2023-03-15T02:07:29;96420.53;;;6.70;59.66
70589;BME280;58152;49.202;18.744;2023-03-15T02:10:54;96428.34;;;6.70;58.90
70589;BME280;58152;49.202;18.744;2023-03-15T02:13:42;96438.97;;;6.66;59.24
70589;BME280;58152;49.202;18.744;2023-03-15T02:16:29;96425.44;;;6.57;59.31
70589;BME280;58152;49.202;18.744;2023-03-15T02:19:05;96441.78;;;6.61;59.44
70589;BME280;58152;49.202;18.744;2023-03-15T02:29:18;96460.81;;;6.43;58.17
70589;BME280;58152;49.202;18.744;2023-03-15T02:32:02;96469.59;;;6.40;58.56
70589;BME280;58152;49.202;18.744;2023-03-15T02:34:35;96471.50;;;6.36;59.13
70589;BME280;58152;49.202;18.744;2023-03-15T02:37:02;96476.06;;;6.31;58.34
70589;BME280;58152;49.202;18.744;2023-03-15T02:39:27;96467.19;;;6.15;58.11
70589;BME280;58152;49.202;18.744;2023-03-15T02:41:56;96463.03;;;6.11;58.72
70589;BME280;58152;49.202;18.744;2023-03-15T02:44:31;96474.88;;;6.18;58.29
70589;BME280;58152;49.202;18.744;2023-03-15T02:47:10;96468.25;;;6.11;58.30
70589;BME280;58152;49.202;18.744;2023-03-15T02:49:40;96473.75;;;6.03;58.29
70589;BME280;58152;49.202;18.744;2023-03-15T02:52:08;96494.53;;;6.05;58.71
70589;BME280;58152;49.202;18.744;2023-03-15T02:54:34;96488.84;;;5.95;58.48
70589;BME280;58152;49.202;18.744;2023-03-15T02:57:01;96494.72;;;6.00;58.43
70589;BME280;58152;49.202;18.744;2023-03-15T02:59:26;96489.81;;;5.93;58.63
70589;BME280;58152;49.202;18.744;2023-03-15T03:01:52;96497.72;;;5.90;57.90
70589;BME280;58152;49.202;18.744;2023-03-15T03:04:17;96503.94;;;5.85;57.76
70589;BME280;58152;49.202;18.744;2023-03-15T03:06:43;96506.44;;;5.89;58.05
70589;BME280;58152;49.202;18.744;2023-03-15T03:09:09;96497.00;;;5.86;57.93
70589;BME280;58152;49.202;18.744;2023-03-15T03:11:35;96491.91;;;5.83;57.81
70589;BME280;58152;49.202;18.744;2023-03-15T03:14:00;96502.34;;;5.83;57.80
70589;BME280;58152;49.202;18.744;2023-03-15T03:16:26;96510.88;;;5.86;57.18
70589;BME280;58152;49.202;18.744;2023-03-15T03:18:51;96501.72;;;5.76;56.45
70589;BME280;58152;49.202;18.744;2023-03-15T03:21:32;96504.38;;;5.75;56.17
70589;BME280;58152;49.202;18.744;2023-03-15T03:24:12;96504.56;;;5.70;56.57
70589;BME280;58152;49.202;18.744;2023-03-15T03:27:06;96508.00;;;5.71;56.67
70589;BME280;58152;49.202;18.744;2023-03-15T03:29:35;96511.47;;;5.71;56.46
70589;BME280;58152;49.202;18.744;2023-03-15T03:32:00;96513.34;;;5.68;56.71
70589;BME280;58152;49.202;18.744;2023-03-15T03:34:25;96521.09;;;5.69;56.15
70589;BME280;58152;49.202;18.744;2023-03-15T03:36:51;96522.06;;;5.67;56.39
70589;BME280;58152;49.202;18.744;2023-03-15T03:39:17;96532.78;;;5.59;55.92
70589;BME280;58152;49.202;18.744;2023-03-15T03:41:42;96529.47;;;5.54;56.33
70589;BME280;58152;49.202;18.744;2023-03-15T03:44:08;96526.00;;;5.55;56.42
70589;BME280;58152;49.202;18.744;2023-03-15T03:46:33;96535.56;;;5.54;56.41
70589;BME280;58152;49.202;18.744;2023-03-15T03:49:00;96524.53;;;5.48;56.48
70589;BME280;58152;49.202;18.744;2023-03-15T03:51:25;96537.53;;;5.48;56.08
70589;BME280;58152;49.202;18.744;2023-03-15T03:53:51;96531.75;;;5.40;56.81
70589;BME280;58152;49.202;18.744;2023-03-15T03:56:16;96542.25;;;5.38;56.59
70589;BME280;58152;49.202;18.744;2023-03-15T03:58:42;96549.13;;;5.39;56.40
70589;BME280;58152;49.202;18.744;2023-03-15T04:01:07;96548.13;;;5.43;57.00
70589;BME280;58152;49.202;18.744;2023-03-15T04:03:32;96543.72;;;5.45;57.04
70589;BME280;58152;49.202;18.744;2023-03-15T04:05:58;96547.28;;;5.43;56.69
70589;BME280;58152;49.202;18.744;2023-03-15T04:08:25;96540.59;;;5.35;56.65
70589;BME280;58152;49.202;18.744;2023-03-15T04:10:52;96548.69;;;5.28;56.20
70589;BME280;58152;49.202;18.744;2023-03-15T04:13:19;96542.75;;;5.24;56.89
70589;BME280;58152;49.202;18.744;2023-03-15T04:15:45;96544.34;;;5.28;56.61
70589;BME280;58152;49.202;18.744;2023-03-15T04:18:11;96550.50;;;5.26;56.54
70589;BME280;58152;49.202;18.744;2023-03-15T04:20:36;96552.22;;;5.27;56.48
70589;BME280;58152;49.202;18.744;2023-03-15T04:23:01;96545.53;;;5.20;56.39
70589;BME280;58152;49.202;18.744;2023-03-15T04:25:27;96540.66;;;5.10;56.13
70589;BME280;58152;49.202;18.744;2023-03-15T04:27:53;96542.34;;;5.12;56.27
70589;BME280;58152;49.202;18.744;2023-03-15T04:30:30;96547.38;;;5.16;56.12
70589;BME280;58152;49.202;18.744;2023-03-15T04:32:56;96554.25;;;5.19;56.50
70589;BME280;58152;49.202;18.744;2023-03-15T04:35:33;96550.66;;;5.21;56.25
70589;BME280;58152;49.202;18.744;2023-03-15T04:37:58;96573.22;;;5.21;56.41
70589;BME280;58152;49.202;18.744;2023-03-15T04:40:24;96574.19;;;5.18;56.20
70589;BME280;58152;49.202;18.744;2023-03-15T04:42:51;96577.81;;;5.14;55.88
70589;BME280;58152;49.202;18.744;2023-03-15T04:45:20;96585.59;;;5.14;55.69
70589;BME280;58152;49.202;18.744;2023-03-15T04:47:46;96577.22;;;5.06;55.48
70589;BME280;58152;49.202;18.744;2023-03-15T04:50:11;96585.88;;;5.06;55.78
70589;BME280;58152;49.202;18.744;2023-03-15T04:52:38;96580.75;;;5.05;55.96
70589;BME280;58152;49.202;18.744;2023-03-15T04:55:03;96580.94;;;4.99;55.49
70589;BME280;58152;49.202;18.744;2023-03-15T04:57:29;96599.09;;;5.00;55.38
70589;BME280;58152;49.202;18.744;2023-03-15T04:59:54;96579.47;;;4.92;55.68
70589;BME280;58152;49.202;18.744;2023-03-15T05:02:21;96591.41;;;4.97;56.02
70589;BME280;58152;49.202;18.744;2023-03-15T05:04:46;96598.28;;;4.98;55.80
70589;BME280;58152;49.202;18.744;2023-03-15T05:07:12;96593.09;;;4.98;55.99
70589;BME280;58152;49.202;18.744;2023-03-15T05:09:37;96601.56;;;5.03;55.83
70589;BME280;58152;49.202;18.744;2023-03-15T05:12:04;96603.63;;;4.95;55.48
70589;BME280;58152;49.202;18.744;2023-03-15T05:14:30;96618.16;;;5.01;55.50
70589;BME280;58152;49.202;18.744;2023-03-15T05:16:56;96613.88;;;4.98;55.78
70589;BME280;58152;49.202;18.744;2023-03-15T05:19:24;96621.66;;;5.00;55.75
70589;BME280;58152;49.202;18.744;2023-03-15T05:21:50;96627.63;;;5.02;56.00
70589;BME280;58152;49.202;18.744;2023-03-15T05:24:15;96623.28;;;5.02;55.90
70589;BME280;58152;49.202;18.744;2023-03-15T05:26:41;96621.75;;;4.97;55.43
70589;BME280;58152;49.202;18.744;2023-03-15T05:29:11;96616.81;;;4.89;55.53
70589;BME280;58152;49.202;18.744;2023-03-15T05:31:37;96620.09;;;4.94;56.00
70589;BME280;58152;49.202;18.744;2023-03-15T05:34:06;96627.72;;;4.99;55.88
70589;BME280;58152;49.202;18.744;2023-03-15T05:36:32;96616.56;;;4.97;55.79
70589;BME280;58152;49.202;18.744;2023-03-15T05:38:59;96636.38;;;4.99;55.64
70589;BME280;58152;49.202;18.744;2023-03-15T05:41:27;96631.25;;;4.98;55.68
70589;BME280;58152;49.202;18.744;2023-03-15T05:43:52;96636.59;;;4.93;55.38
70589;BME280;58152;49.202;18.744;2023-03-15T05:46:20;96629.13;;;4.84;55.40
70589;BME280;58152;49.202;18.744;2023-03-15T05:48:55;96636.81;;;4.87;55.71
70589;BME280;58152;49.202;18.744;2023-03-15T05:51:32;96638.03;;;4.77;55.52
70589;BME280;58152;49.202;18.744;2023-03-15T05:54:13;96647.53;;;4.78;55.55
70589;BME280;58152;49.202;18.744;2023-03-15T05:56:46;96639.81;;;4.75;55.55
70589;BME280;58152;49.202;18.744;2023-03-15T05:59:14;96639.72;;;4.78;55.64
70589;BME280;58152;49.202;18.744;2023-03-15T06:01:46;96643.25;;;4.75;55.49
70589;BME280;58152;49.202;18.744;2023-03-15T06:04:13;96636.47;;;4.71;55.62
70589;BME280;58152;49.202;18.744;2023-03-15T06:06:39;96648.69;;;4.69;55.54
70589;BME280;58152;49.202;18.744;2023-03-15T06:09:04;96664.97;;;4.74;55.71
70589;BME280;58152;49.202;18.744;2023-03-15T06:11:30;96653.94;;;4.68;55.58
70589;BME280;58152;49.202;18.744;2023-03-15T06:13:55;96661.75;;;4.66;55.72
70589;BME280;58152;49.202;18.744;2023-03-15T06:16:21;96665.41;;;4.61;55.94
70589;BME280;58152;49.202;18.744;2023-03-15T06:18:46;96676.56;;;4.64;55.62
70589;BME280;58152;49.202;18.744;2023-03-15T06:21:12;96680.84;;;4.65;55.91
70589;BME280;58152;49.202;18.744;2023-03-15T06:23:37;96677.34;;;4.66;56.09
70589;BME280;58152;49.202;18.744;2023-03-15T06:26:03;96684.31;;;4.66;55.89
70589;BME280;58152;49.202;18.744;2023-03-15T06:28:28;96670.47;;;4.65;55.35
70589;BME280;58152;49.202;18.744;2023-03-15T06:30:54;96678.31;;;4.64;55.43
70589;BME280;58152;49.202;18.744;2023-03-15T06:33:19;96689.56;;;4.64;55.70
70589;BME280;58152;49.202;18.744;2023-03-15T06:35:45;96703.16;;;4.72;55.78
70589;BME280;58152;49.202;18.744;2023-03-15T06:38:11;96698.09;;;4.68;55.78
70589;BME280;58152;49.202;18.744;2023-03-15T06:40:38;96693.78;;;4.67;55.09
70589;BME280;58152;49.202;18.744;2023-03-15T06:43:04;96701.69;;;4.64;55.68
70589;BME280;58152;49.202;18.744;2023-03-15T06:45:31;96711.03;;;4.69;55.70
70589;BME280;58152;49.202;18.744;2023-03-15T06:47:57;96711.03;;;4.69;55.80
70589;BME280;58152;49.202;18.744;2023-03-15T06:50:32;96712.66;;;4.73;55.39
70589;BME280;58152;49.202;18.744;2023-03-15T06:53:08;96714.44;;;4.71;55.93
70589;BME280;58152;49.202;18.744;2023-03-15T06:55:34;96702.41;;;4.69;55.91
70589;BME280;58152;49.202;18.744;2023-03-15T06:58:00;96711.97;;;4.67;55.29
70589;BME280;58152;49.202;18.744;2023-03-15T07:00:25;96725.88;;;4.66;55.44
70589;BME280;58152;49.202;18.744;2023-03-15T07:02:51;96736.22;;;4.67;55.37
70589;BME280;58152;49.202;18.744;2023-03-15T07:05:21;96730.16;;;4.67;55.51
70589;BME280;58152;49.202;18.744;2023-03-15T07:08:09;96740.75;;;4.61;54.81
70589;BME280;58152;49.202;18.744;2023-03-15T07:11:02;96750.25;;;4.62;55.52
70589;BME280;58152;49.202;18.744;2023-03-15T07:13:46;96750.25;;;4.62;55.81
70589;BME280;58152;49.202;18.744;2023-03-15T07:16:12;96763.22;;;4.63;55.50
70589;BME280;58152;49.202;18.744;2023-03-15T07:18:37;96761.53;;;4.61;55.60
70589;BME280;58152;49.202;18.744;2023-03-15T07:21:04;96760.03;;;4.53;55.71
70589;BME280;58152;49.202;18.744;2023-03-15T07:23:38;96755.72;;;4.52;54.82
70589;BME280;58152;49.202;18.744;2023-03-15T07:26:06;96772.22;;;4.51;55.14
70589;BME280;58152;49.202;18.744;2023-03-15T07:28:35;96775.88;;;4.46;55.23
70589;BME280;58152;49.202;18.744;2023-03-15T07:31:02;96768.22;;;4.41;55.01
70589;BME280;58152;49.202;18.744;2023-03-15T07:33:36;96774.97;;;4.47;55.35
70589;BME280;58152;49.202;18.744;2023-03-15T07:36:06;96774.81;;;4.51;55.42
70589;BME280;58152;49.202;18.744;2023-03-15T07:38:33;96784.16;;;4.58;55.65
70589;BME280;58152;49.202;18.744;2023-03-15T07:41:01;96774.81;;;4.51;55.21
70589;BME280;58152;49.202;18.744;2023-03-15T07:43:27;96785.97;;;4.55;55.40
70589;BME280;58152;49.202;18.744;2023-03-15T07:45:53;96791.19;;;4.53;55.10
70589;BME280;58152;49.202;18.744;2023-03-15T07:48:19;96811.97;;;4.53;55.10
70589;BME280;58152;49.202;18.744;2023-03-15T07:50:44;96809.50;;;4.50;54.76
70589;BME280;58152;49.202;18.744;2023-03-15T07:53:10;96791.53;;;4.43;54.83
70589;BME280;58152;49.202;18.744;2023-03-15T07:55:35;96801.66;;;4.52;54.94
70589;BME280;58152;49.202;18.744;2023-03-15T07:58:01;96808.47;;;4.56;54.85
70589;BME280;58152;49.202;18.744;2023-03-15T08:00:27;96796.41;;;4.53;54.00
70589;BME280;58152;49.202;18.744;2023-03-15T08:02:53;96794.69;;;4.54;53.93
70589;BME280;58152;49.202;18.744;2023-03-15T08:05:18;96806.72;;;4.56;54.36
70589;BME280;58152;49.202;18.744;2023-03-15T08:07:47;96814.59;;;4.53;54.40
70589;BME280;58152;49.202;18.744;2023-03-15T08:10:14;96824.00;;;4.57;54.15
70589;BME280;58152;49.202;18.744;2023-03-15T08:12:43;96816.38;;;4.51;54.37
70589;BME280;58152;49.202;18.744;2023-03-15T08:15:10;96826.00;;;4.49;53.77
70589;BME280;58152;49.202;18.744;2023-03-15T08:17:37;96830.22;;;4.52;53.68
70589;BME280;58152;49.202;18.744;2023-03-15T08:20:03;96824.38;;;4.45;53.55
70589;BME280;58152;49.202;18.744;2023-03-15T08:22:32;96828.59;;;4.48;53.63
70589;BME280;58152;49.202;18.744;2023-03-15T08:25:03;96829.44;;;4.50;53.46
70589;BME280;58152;49.202;18.744;2023-03-15T08:27:30;96829.38;;;4.51;53.39
70589;BME280;58152;49.202;18.744;2023-03-15T08:29:58;96851.84;;;4.54;53.77
70589;BME280;58152;49.202;18.744;2023-03-15T08:32:23;96838.94;;;4.51;53.49
70589;BME280;58152;49.202;18.744;2023-03-15T08:34:48;96838.84;;;4.54;53.81
70589;BME280;58152;49.202;18.744;2023-03-15T08:37:14;96844.69;;;4.61;53.52
70589;BME280;58152;49.202;18.744;2023-03-15T08:39:40;96840.47;;;4.56;53.74
70589;BME280;58152;49.202;18.744;2023-03-15T08:42:05;96839.56;;;4.57;53.52
70589;BME280;58152;49.202;18.744;2023-03-15T08:44:31;96840.41;;;4.59;53.13
70589;BME280;58152;49.202;18.744;2023-03-15T08:46:57;96838.72;;;4.57;53.04
70589;BME280;58152;49.202;18.744;2023-03-15T08:49:22;96840.47;;;4.56;53.06
70589;BME280;58152;49.202;18.744;2023-03-15T08:51:48;96839.56;;;4.57;52.85
70589;BME280;58152;49.202;18.744;2023-03-15T08:54:13;96845.81;;;4.52;52.76
70589;BME280;58152;49.202;18.744;2023-03-15T08:56:40;96860.41;;;4.56;52.45
70589;BME280;58152;49.202;18.744;2023-03-15T08:59:06;96847.47;;;4.54;52.49
70589;BME280;58152;49.202;18.744;2023-03-15T09:01:32;96862.31;;;4.51;52.33
70589;BME280;58152;49.202;18.744;2023-03-15T09:03:59;96859.56;;;4.55;52.36
70589;BME280;58152;49.202;18.744;2023-03-15T09:06:25;96865.66;;;4.54;52.75
70589;BME280;58152;49.202;18.744;2023-03-15T09:08:51;96863.06;;;4.54;52.79
70589;BME280;58152;49.202;18.744;2023-03-15T09:11:18;96875.16;;;4.55;52.62
70589;BME280;58152;49.202;18.744;2023-03-15T09:13:44;96873.41;;;4.56;52.69
70589;BME280;58152;49.202;18.744;2023-03-15T09:16:09;96890.56;;;4.62;53.22
70589;BME280;58152;49.202;18.744;2023-03-15T09:18:34;96882.88;;;4.58;53.13
70589;BME280;58152;49.202;18.744;2023-03-15T09:21:03;96875.94;;;4.59;53.09
70589;BME280;58152;49.202;18.744;2023-03-15T09:23:29;96883.00;;;4.54;52.53
70589;BME280;58152;49.202;18.744;2023-03-15T09:25:54;96891.72;;;4.51;52.54
70589;BME280;58152;49.202;18.744;2023-03-15T09:28:24;96900.25;;;4.56;53.02
70589;BME280;58152;49.202;18.744;2023-03-15T09:30:50;96896.16;;;4.48;52.42
70589;BME280;58152;49.202;18.744;2023-03-15T09:33:16;96912.31;;;4.59;52.83
70589;BME280;58152;49.202;18.744;2023-03-15T09:35:41;96901.81;;;4.62;53.04
70589;BME280;58152;49.202;18.744;2023-03-15T09:38:07;96909.59;;;4.62;52.82
70589;BME280;58152;49.202;18.744;2023-03-15T09:40:43;96908.66;;;4.65;52.76
70589;BME280;58152;49.202;18.744;2023-03-15T09:43:41;96916.47;;;4.65;52.35
70589;BME280;58152;49.202;18.744;2023-03-15T09:46:26;96914.72;;;4.65;52.58
70589;BME280;58152;49.202;18.744;2023-03-15T09:49:08;96899.25;;;4.61;51.31
70589;BME280;58152;49.202;18.744;2023-03-15T09:51:42;96908.72;;;4.63;51.86
70589;BME280;58152;49.202;18.744;2023-03-15T09:54:17;96916.53;;;4.62;51.64
70589;BME280;58152;49.202;18.744;2023-03-15T09:59:46;96917.38;;;4.64;51.46
70589;BME280;58152;49.202;18.744;2023-03-15T10:02:24;96915.50;;;4.67;50.69
70589;BME280;58152;49.202;18.744;2023-03-15T10:04:57;96917.09;;;4.73;51.30
70589;BME280;58152;49.202;18.744;2023-03-15T10:07:26;96926.47;;;4.78;50.83
70589;BME280;58152;49.202;18.744;2023-03-15T10:09:52;96917.00;;;4.76;50.79
70589;BME280;58152;49.202;18.744;2023-03-15T10:12:31;96927.25;;;4.80;50.44
70589;BME280;58152;49.202;18.744;2023-03-15T10:15:57;96925.63;;;4.76;49.72
70589;BME280;58152;49.202;18.744;2023-03-15T10:21:26;96928.16;;;4.79;49.61
70589;BME280;58152;49.202;18.744;2023-03-15T10:23:57;96934.06;;;4.86;49.97
70589;BME280;58152;49.202;18.744;2023-03-15T10:26:27;96931.34;;;4.89;50.45
70589;BME280;58152;49.202;18.744;2023-03-15T10:28:53;96938.38;;;4.85;49.77
70589;BME280;58152;49.202;18.744;2023-03-15T10:31:25;96929.69;;;4.87;49.89
70589;BME280;58152;49.202;18.744;2023-03-15T10:33:52;96943.63;;;4.84;49.79
70589;BME280;58152;49.202;18.744;2023-03-15T10:36:23;96948.94;;;4.79;49.66
70589;BME280;58152;49.202;18.744;2023-03-15T10:38:49;96940.38;;;4.76;50.00
70589;BME280;58152;49.202;18.744;2023-03-15T10:41:38;96957.47;;;4.84;49.29
70589;BME280;58152;49.202;18.744;2023-03-15T10:44:14;96946.28;;;4.82;49.84
70589;BME280;58152;49.202;18.744;2023-03-15T10:46:58;96951.59;;;4.78;48.20
70589;BME280;58152;49.202;18.744;2023-03-15T10:49:32;96941.16;;;4.79;49.17
70589;BME280;58152;49.202;18.744;2023-03-15T10:51:58;96960.91;;;4.85;49.67
70589;BME280;58152;49.202;18.744;2023-03-15T10:54:24;96949.59;;;4.88;49.66
70589;BME280;58152;49.202;18.744;2023-03-15T10:57:13;96955.56;;;4.91;49.49
70589;BME280;58152;49.202;18.744;2023-03-15T10:59:57;96957.88;;;5.00;48.98
70589;BME280;58152;49.202;18.744;2023-03-15T11:02:24;96960.25;;;5.08;49.67
70589;BME280;58152;49.202;18.744;2023-03-15T11:05:02;96962.56;;;5.17;48.77
70589;BME280;58152;49.202;18.744;2023-03-15T11:07:28;96954.81;;;5.16;49.29
70589;BME280;58152;49.202;18.744;2023-03-15T11:09:58;96968.25;;;5.30;49.21
70589;BME280;58152;49.202;18.744;2023-03-15T11:12:27;96967.97;;;5.39;49.03
70589;BME280;58152;49.202;18.744;2023-03-15T11:15:02;96953.59;;;5.55;48.03
70589;BME280;58152;49.202;18.744;2023-03-15T11:17:34;96946.59;;;5.84;47.76
70589;BME280;58152;49.202;18.744;2023-03-15T11:23:25;96962.19;;;6.62;47.27
70589;BME280;58152;49.202;18.744;2023-03-15T11:25:52;96946.28;;;6.70;47.34
70589;BME280;58152;49.202;18.744;2023-03-15T11:28:22;96957.22;;;6.54;47.51
70589;BME280;58152;49.202;18.744;2023-03-15T11:30:50;96933.69;;;6.32;46.95
70589;BME280;58152;49.202;18.744;2023-03-15T11:33:47;96953.13;;;6.22;45.54
70589;BME280;58152;49.202;18.744;2023-03-15T11:36:21;96948.06;;;6.19;47.57
70589;BME280;58152;49.202;18.744;2023-03-15T11:38:48;96949.81;;;6.19;47.52
70589;BME280;58152;49.202;18.744;2023-03-15T11:44:42;96934.38;;;6.13;45.81
70589;BME280;58152;49.202;18.744;2023-03-15T11:52:09;96921.16;;;6.19;47.37
70589;BME280;58152;49.202;18.744;2023-03-15T11:54:35;96930.59;;;6.21;47.47
70589;BME280;58152;49.202;18.744;2023-03-15T11:57:04;96924.72;;;6.16;47.63
70589;BME280;58152;49.202;18.744;2023-03-15T11:59:39;96924.94;;;6.10;46.92
70589;BME280;58152;49.202;18.744;2023-03-15T12:07:28;96940.97;;;5.98;46.01
70589;BME280;58152;49.202;18.744;2023-03-15T12:10:42;96936.69;;;5.95;47.00
70589;BME280;58152;49.202;18.744;2023-03-15T12:12:47;96929.78;;;5.94;46.38
70589;BME280;58152;49.202;18.744;2023-03-15T12:28:40;96937.56;;;6.21;45.45
70589;BME280;58152;49.202;18.744;2023-03-15T12:31:10;96921.19;;;6.17;45.96
70589;BME280;58152;49.202;18.744;2023-03-15T12:36:18;96936.72;;;6.20;45.51
70589;BME280;58152;49.202;18.744;2023-03-15T12:38:57;96911.88;;;6.35;45.46
70589;BME280;58152;49.202;18.744;2023-03-15T12:54:44;96948.56;;;6.54;46.12
70589;BME280;58152;49.202;18.744;2023-03-15T12:57:19;96955.75;;;6.47;45.21
70589;BME280;58152;49.202;18.744;2023-03-15T13:02:32;96962.81;;;6.44;44.35
70589;BME280;58152;49.202;18.744;2023-03-15T13:05:00;96975.94;;;6.41;45.53
70589;BME280;58152;49.202;18.744;2023-03-15T13:14:52;96987.22;;;6.41;44.23
70589;BME280;58152;49.202;18.744;2023-03-15T13:25:57;96991.50;;;6.44;44.17
70589;BME280;58152;49.202;18.744;2023-03-15T13:28:35;96980.44;;;6.37;44.79
70589;BME280;58152;49.202;18.744;2023-03-15T13:31:30;96990.88;;;6.37;43.45
70589;BME280;58152;49.202;18.744;2023-03-15T13:34:09;96994.19;;;6.41;44.81
70589;BME280;58152;49.202;18.744;2023-03-15T13:36:44;96990.66;;;6.43;44.59
70589;BME280;58152;49.202;18.744;2023-03-15T13:39:20;97000.09;;;6.46;44.91
70589;BME280;58152;49.202;18.744;2023-03-15T13:41:48;96987.94;;;6.46;44.95
70589;BME280;58152;49.202;18.744;2023-03-15T13:44:22;97010.16;;;6.56;44.56
70589;BME280;58152;49.202;18.744;2023-03-15T13:47:03;96992.59;;;6.61;44.97
70589;BME280;58152;49.202;18.744;2023-03-15T13:49:36;96997.88;;;6.60;44.30
70589;BME280;58152;49.202;18.744;2023-03-15T13:52:05;97002.38;;;6.55;45.04
70589;BME280;58152;49.202;18.744;2023-03-15T13:54:36;97000.91;;;6.48;44.95
70589;BME280;58152;49.202;18.744;2023-03-15T13:57:15;97002.00;;;6.41;44.22
70589;BME280;58152;49.202;18.744;2023-03-15T14:00:06;97001.28;;;6.37;45.17
70589;BME280;58152;49.202;18.744;2023-03-15T14:05:13;97005.94;;;6.27;45.12
70589;BME280;58152;49.202;18.744;2023-03-15T14:07:42;97012.22;;;6.22;44.85
70589;BME280;58152;49.202;18.744;2023-03-15T14:12:42;97017.56;;;6.17;44.94
70589;BME280;58152;49.202;18.744;2023-03-15T14:15:16;97024.63;;;6.14;44.77
70589;BME280;58152;49.202;18.744;2023-03-15T14:18:22;97030.75;;;6.13;43.36
70589;BME280;58152;49.202;18.744;2023-03-15T14:23:26;97033.78;;;6.00;45.45
70589;BME280;58152;49.202;18.744;2023-03-15T14:26:00;97031.03;;;6.05;46.13
70589;BME280;58152;49.202;18.744;2023-03-15T14:28:30;97016.41;;;5.99;45.71
70589;BME280;58152;49.202;18.744;2023-03-15T14:31:01;97022.44;;;6.01;45.17
70589;BME280;58152;49.202;18.744;2023-03-15T14:33:38;97022.47;;;6.00;45.55
70589;BME280;58152;49.202;18.744;2023-03-15T14:36:19;97029.59;;;5.95;45.53
70589;BME280;58152;49.202;18.744;2023-03-15T14:38:59;97025.34;;;5.91;45.24
70589;BME280;58152;49.202;18.744;2023-03-15T14:41:29;97038.22;;;5.97;45.82